Other Surface Observations
Issued by NWS Great Falls, MT

Home | Current Version | Previous Version | Text Only | Print | Product List | Glossary On
Versions: 1 2 3 4 5 6 7 8 9 10 11 12 13 14 15 16 17 18 19 20 21 22 23 24 25 26 27 28 29 30 31 32 33 34 35 36 37 38 39 40 41 42 43 44 45 46 47 48 49 50
405
SXUS55 KTFX 082044
OSOTFX
AREA AWOS OBSERVATIONS
NATIONAL WEATHER SERVICE GREAT FALLS MT
0144 PM MST THU DEC 08 2016

METAR KPWD 082045Z AUTO 30005KT 6SM M19/M23 A3060 RMK PLENTYWOOD
METAR KPO1 082045Z AUTO 00000KT 10SM M16/M21 A3064 RMK POPLAR
METAR K1S3 082045Z AUTO 05003KT 10SM M13/M19 A3052 RMK FORSYTH
METAR KS71 082045Z AUTO 29003KT 10SM M17/M22 A3058 RMK CHINOOK
METAR K38S 082045Z AUTO 05004KT 10SM M11/M17 A3016 RMK DEER LODGE
METAR K3U3 082045Z AUTO 13005KT 10SM M09/M18 A3011 RMK ANACONDA
METAR K6S5 082045Z AUTO 00000KT 10SM M08/M17 A3020 RMK HAMILTON
METAR KS59 082045Z AUTO 00000KT 10SM M11/M16 A3035 RMK LIBBY
METAR K88M 082045Z AUTO 00000KT 10SM M15/M18 A3041 RMK EUREKA



USA.gov is the U.S. government's official web portal to all federal, state and local government web resources and services.